Time;durP1;ratioP1;P1;durP2;ratioP2;P2;SDS_P1;SDS_P2;PMS_P1;PMS_P2;Temp;Humidity;BMP_temperature;BMP_pressure;BME280_temperature;BME280_humidity;BME280_pressure;Samples;Min_cycle;Max_cycle;Signal;HPM_P1;HPM_P2
2022/12/19 00:00:50;;;;;;;7.03;5.38;;;;;;;;;;5114318;28;20032;-76
2022/12/19 00:03:15;;;;;;;6.57;5.03;;;;;;;;;;5112858;28;20150;-75
2022/12/19 00:05:41;;;;;;;8.52;4.93;;;;;;;;;;5114420;28;20038;-76
2022/12/19 00:08:13;;;;;;;6.25;4.80;;;;;;;;;;5113024;28;20035;-75
2022/12/19 00:10:39;;;;;;;6.47;5.20;;;;;;;;;;5112744;28;20027;-75
2022/12/19 00:13:04;;;;;;;7.57;5.25;;;;;;;;;;5112767;28;20173;-75
2022/12/19 00:15:32;;;;;;;7.32;5.55;;;;;;;;;;5095601;28;20035;-75
2022/12/19 00:17:57;;;;;;;7.25;5.55;;;;;;;;;;5112199;28;20497;-75
2022/12/19 00:20:23;;;;;;;7.18;5.35;;;;;;;;;;5113715;28;20032;-75
2022/12/19 00:22:48;;;;;;;7.20;5.22;;;;;;;;;;5112706;28;20023;-75
2022/12/19 00:25:14;;;;;;;5.80;4.88;;;;;;;;;;5112407;28;20034;-75
2022/12/19 00:27:39;;;;;;;7.80;5.22;;;;;;;;;;5112604;28;20428;-75
2022/12/19 00:30:05;;;;;;;9.02;4.97;;;;;;;;;;5113564;28;20030;-75
2022/12/19 00:32:30;;;;;;;7.47;5.07;;;;;;;;;;5113849;28;20412;-75
2022/12/19 00:34:56;;;;;;;6.68;5.00;;;;;;;;;;5113476;28;20048;-76
2022/12/19 00:37:21;;;;;;;6.85;4.93;;;;;;;;;;5113641;28;20042;-76
2022/12/19 00:39:46;;;;;;;6.88;4.97;;;;;;;;;;5113410;28;20055;-76
2022/12/19 00:42:12;;;;;;;7.65;5.30;;;;;;;;;;5112120;28;20123;-76
2022/12/19 00:44:37;;;;;;;8.43;5.22;;;;;;;;;;5113349;28;20079;-76
2022/12/19 00:47:02;;;;;;;8.65;5.50;;;;;;;;;;5113262;28;20027;-76
2022/12/19 00:49:28;;;;;;;7.68;5.75;;;;;;;;;;5112281;28;20035;-74
2022/12/19 00:51:56;;;;;;;6.45;4.97;;;;;;;;;;5111886;28;20043;-76
2022/12/19 00:54:21;;;;;;;6.80;4.90;;;;;;;;;;5113330;28;20035;-76
2022/12/19 00:56:47;;;;;;;7.07;5.30;;;;;;;;;;5078124;28;20032;-75
2022/12/19 00:59:12;;;;;;;6.28;5.00;;;;;;;;;;5113137;28;20431;-75
2022/12/19 01:01:39;;;;;;;7.35;5.40;;;;;;;;;;5112222;28;20161;-75
2022/12/19 01:04:06;;;;;;;7.18;5.00;;;;;;;;;;5111311;28;20311;-76
2022/12/19 01:06:32;;;;;;;8.18;4.60;;;;;;;;;;5094705;28;20084;-76
2022/12/19 01:08:57;;;;;;;7.45;5.15;;;;;;;;;;5111818;28;20474;-75
2022/12/19 01:12:44;;;;;;;6.10;4.70;;;;;;;;;;5113049;28;20478;-75
2022/12/19 01:14:10;;;;;;;6.70;5.05;;;;;;;;;;5111711;28;20440;-74
2022/12/19 01:16:35;;;;;;;7.68;5.65;;;;;;;;;;5111994;28;20106;-75
2022/12/19 01:19:01;;;;;;;6.10;4.72;;;;;;;;;;5113264;28;20493;-75
2022/12/19 01:21:26;;;;;;;5.93;5.10;;;;;;;;;;5112959;28;20034;-75
2022/12/19 01:23:51;;;;;;;6.85;4.93;;;;;;;;;;5111807;28;20096;-74
2022/12/19 01:26:17;;;;;;;7.45;4.68;;;;;;;;;;5112955;28;20072;-75
2022/12/19 01:28:42;;;;;;;7.13;4.80;;;;;;;;;;5114787;28;20449;-75
2022/12/19 01:31:08;;;;;;;6.80;5.00;;;;;;;;;;5115808;28;20028;-75
2022/12/19 01:33:33;;;;;;;5.80;4.90;;;;;;;;;;5117271;28;20081;-75
2022/12/19 01:36:06;;;;;;;5.82;4.85;;;;;;;;;;5115488;28;20043;-75
2022/12/19 01:38:32;;;;;;;5.93;4.72;;;;;;;;;;5115805;28;20550;-75
2022/12/19 01:40:57;;;;;;;6.47;5.20;;;;;;;;;;5098828;28;20063;-75
2022/12/19 01:43:24;;;;;;;6.10;4.78;;;;;;;;;;5115740;28;20106;-75
2022/12/19 01:45:55;;;;;;;6.07;4.80;;;;;;;;;;5117068;28;20455;-75
2022/12/19 01:48:21;;;;;;;5.97;4.57;;;;;;;;;;5115691;28;20164;-75
2022/12/19 01:51:06;;;;;;;5.85;4.32;;;;;;;;;;5115677;28;20076;-75
2022/12/19 01:53:40;;;;;;;7.43;4.53;;;;;;;;;;5115577;28;20035;-75
2022/12/19 01:56:08;;;;;;;9.02;4.90;;;;;;;;;;5116884;28;20363;-75
2022/12/19 01:58:35;;;;;;;6.05;4.80;;;;;;;;;;5115356;28;20027;-76
2022/12/19 02:01:00;;;;;;;6.90;5.03;;;;;;;;;;5115006;28;20025;-75
2022/12/19 02:03:28;;;;;;;5.93;4.95;;;;;;;;;;5113022;28;21279;-74
2022/12/19 02:05:53;;;;;;;5.10;4.10;;;;;;;;;;5097312;28;20107;-73
2022/12/19 02:08:20;;;;;;;5.63;4.47;;;;;;;;;;5097431;28;20061;-73
2022/12/19 02:10:45;;;;;;;6.25;4.60;;;;;;;;;;5114411;28;20435;-73
2022/12/19 02:13:11;;;;;;;6.05;4.68;;;;;;;;;;5115376;28;20058;-73
2022/12/19 02:16:18;;;;;;;6.88;4.72;;;;;;;;;;5097409;28;20035;-74
2022/12/19 02:19:27;;;;;;;5.30;4.40;;;;;;;;;;5094164;28;20044;-73
2022/12/19 02:22:03;;;;;;;6.50;5.10;;;;;;;;;;5091174;28;20040;-74
2022/12/19 02:25:06;;;;;;;5.43;4.25;;;;;;;;;;5114278;28;20469;-74
2022/12/19 02:28:04;;;;;;;6.55;4.82;;;;;;;;;;5115447;28;20397;-76
2022/12/19 02:30:36;;;;;;;6.70;4.90;;;;;;;;;;5115397;28;20027;-75
2022/12/19 02:33:12;;;;;;;5.93;4.55;;;;;;;;;;5115090;28;20586;-75
2022/12/19 02:36:10;;;;;;;5.88;4.82;;;;;;;;;;5115739;28;20107;-75
2022/12/19 02:38:52;;;;;;;7.75;4.68;;;;;;;;;;5082107;28;20031;-76
2022/12/19 02:41:25;;;;;;;6.03;4.72;;;;;;;;;;5097940;28;20131;-75
2022/12/19 02:43:51;;;;;;;5.25;4.72;;;;;;;;;;5114774;28;20020;-75
2022/12/19 02:46:18;;;;;;;6.30;4.90;;;;;;;;;;5114353;28;20039;-75
2022/12/19 02:48:43;;;;;;;5.65;4.50;;;;;;;;;;5114262;28;20023;-75
2022/12/19 02:51:09;;;;;;;6.68;4.95;;;;;;;;;;5114655;28;20139;-75
2022/12/19 02:53:36;;;;;;;6.22;4.88;;;;;;;;;;5114640;28;20050;-75
2022/12/19 02:56:39;;;;;;;6.10;4.63;;;;;;;;;;5114226;28;20039;-75
2022/12/19 02:59:16;;;;;;;6.03;4.63;;;;;;;;;;5115433;28;20024;-75
2022/12/19 03:01:45;;;;;;;6.50;4.97;;;;;;;;;;5114284;28;20081;-75
2022/12/19 03:04:23;;;;;;;5.90;4.53;;;;;;;;;;5115560;28;20015;-75
2022/12/19 03:06:54;;;;;;;6.70;5.05;;;;;;;;;;5115205;28;20031;-75
2022/12/19 03:09:25;;;;;;;6.95;4.72;;;;;;;;;;5115242;28;20020;-75
2022/12/19 03:11:56;;;;;;;5.45;4.45;;;;;;;;;;5113906;28;20091;-75
2022/12/19 03:14:22;;;;;;;5.88;4.40;;;;;;;;;;5113741;28;20031;-75
2022/12/19 03:16:48;;;;;;;6.35;4.75;;;;;;;;;;5113784;28;20104;-75
2022/12/19 03:19:14;;;;;;;6.20;4.65;;;;;;;;;;5113812;28;20106;-75
2022/12/19 03:21:42;;;;;;;6.10;4.50;;;;;;;;;;5115251;28;20389;-75
2022/12/19 03:24:10;;;;;;;6.15;4.78;;;;;;;;;;5096886;28;20035;-75
2022/12/19 03:26:51;;;;;;;7.18;4.78;;;;;;;;;;5096571;28;20020;-75
2022/12/19 03:29:36;;;;;;;8.38;4.75;;;;;;;;;;5113839;28;20099;-75
2022/12/19 03:32:04;;;;;;;6.45;4.68;;;;;;;;;;5113877;28;20181;-75
2022/12/19 03:34:40;;;;;;;5.43;4.25;;;;;;;;;;5113105;28;20042;-73
2022/12/19 03:37:12;;;;;;;8.90;5.20;;;;;;;;;;5113341;28;20059;-75
2022/12/19 03:39:38;;;;;;;5.78;4.57;;;;;;;;;;5096732;28;20031;-74
2022/12/19 03:44:49;;;;;;;8.82;4.40;;;;;;;;;;5114773;28;20038;-74
2022/12/19 03:47:20;;;;;;;7.05;4.22;;;;;;;;;;5096178;28;20044;-75
2022/12/19 03:49:46;;;;;;;7.90;4.35;;;;;;;;;;5113171;28;20363;-75
2022/12/19 03:52:28;;;;;;;6.70;4.65;;;;;;;;;;5112729;28;20036;-74
2022/12/19 03:55:22;;;;;;;7.78;4.80;;;;;;;;;;5114326;28;20027;-75
2022/12/19 03:57:51;;;;;;;;;;;;;;;;;;5113443;28;20028;-73
2022/12/19 04:00:17;;;;;;;6.22;4.82;;;;;;;;;;5114183;28;20011;-75
2022/12/19 04:02:46;;;;;;;7.63;4.72;;;;;;;;;;5113045;28;20502;-75
2022/12/19 04:05:16;;;;;;;8.63;4.82;;;;;;;;;;5112942;28;20099;-75
2022/12/19 04:07:42;;;;;;;7.63;4.10;;;;;;;;;;5113103;28;20454;-75
2022/12/19 04:10:11;;;;;;;8.23;4.18;;;;;;;;;;5113111;28;20085;-75
2022/12/19 04:12:40;;;;;;;4.90;3.75;;;;;;;;;;5112759;28;20032;-75
2022/12/19 04:15:07;;;;;;;7.60;4.40;;;;;;;;;;5095911;28;20473;-75
2022/12/19 04:17:47;;;;;;;5.45;4.20;;;;;;;;;;5112613;28;20082;-75
2022/12/19 04:20:18;;;;;;;8.10;4.20;;;;;;;;;;5112636;28;20102;-75
2022/12/19 04:23:01;;;;;;;4.85;3.85;;;;;;;;;;5095534;28;20506;-75
2022/12/19 04:25:32;;;;;;;7.28;3.90;;;;;;;;;;5113871;28;20055;-75
2022/12/19 04:28:09;;;;;;;5.53;3.83;;;;;;;;;;5113230;28;20349;-75
2022/12/19 04:30:36;;;;;;;7.95;3.70;;;;;;;;;;5112680;28;20427;-75
2022/12/19 04:33:02;;;;;;;5.72;3.72;;;;;;;;;;5095423;28;20045;-75
2022/12/19 04:35:27;;;;;;;5.53;4.10;;;;;;;;;;5112174;28;20134;-75
2022/12/19 04:37:53;;;;;;;4.40;3.60;;;;;;;;;;5113691;28;20106;-75
2022/12/19 04:40:18;;;;;;;4.72;3.78;;;;;;;;;;5112666;28;20034;-75
2022/12/19 04:42:44;;;;;;;4.20;3.63;;;;;;;;;;5113550;28;20358;-74
2022/12/19 04:45:09;;;;;;;4.53;3.63;;;;;;;;;;5095217;28;20121;-75
2022/12/19 04:47:35;;;;;;;5.60;3.97;;;;;;;;;;5112350;28;20031;-75
2022/12/19 04:50:00;;;;;;;4.38;3.47;;;;;;;;;;5095217;28;20473;-75
2022/12/19 04:52:25;;;;;;;4.45;3.70;;;;;;;;;;5078223;28;20084;-74
2022/12/19 04:54:51;;;;;;;4.47;3.50;;;;;;;;;;5112446;28;20517;-75
2022/12/19 04:57:16;;;;;;;4.22;3.53;;;;;;;;;;5112325;28;20035;-74
2022/12/19 04:59:42;;;;;;;4.65;3.55;;;;;;;;;;5113829;28;20538;-76
2022/12/19 05:02:07;;;;;;;4.25;3.58;;;;;;;;;;5112350;28;20040;-75
2022/12/19 05:04:33;;;;;;;8.45;3.60;;;;;;;;;;5112355;28;20028;-74
2022/12/19 05:06:58;;;;;;;4.40;3.47;;;;;;;;;;5114291;28;20076;-75
2022/12/19 05:09:24;;;;;;;4.00;2.97;;;;;;;;;;5113918;28;20027;-75
2022/12/19 05:11:49;;;;;;;7.00;3.38;;;;;;;;;;5114474;28;20115;-75
2022/12/19 05:14:15;;;;;;;7.32;3.00;;;;;;;;;;5113737;28;20042;-75
2022/12/19 05:16:40;;;;;;;6.20;3.35;;;;;;;;;;5112564;28;20063;-76
2022/12/19 05:19:06;;;;;;;7.00;3.38;;;;;;;;;;5104838;28;20024;-75
2022/12/19 05:21:31;;;;;;;6.40;3.25;;;;;;;;;;5110646;28;20028;-75
2022/12/19 05:23:56;;;;;;;4.63;2.75;;;;;;;;;;5111937;28;20446;-75
2022/12/19 05:26:22;;;;;;;4.18;3.00;;;;;;;;;;5113164;28;20040;-74
2022/12/19 05:28:47;;;;;;;6.30;2.63;;;;;;;;;;5113089;28;20385;-77
2022/12/19 05:31:21;;;;;;;8.48;2.85;;;;;;;;;;5113228;28;20035;-75
2022/12/19 05:33:47;;;;;;;6.43;3.10;;;;;;;;;;5114019;28;20355;-75
2022/12/19 05:36:14;;;;;;;4.85;2.90;;;;;;;;;;5112337;28;20130;-77
2022/12/19 05:38:40;;;;;;;4.63;2.88;;;;;;;;;;5095483;28;20023;-75
2022/12/19 05:41:10;;;;;;;6.50;2.72;;;;;;;;;;5112388;28;20382;-75
2022/12/19 05:43:35;;;;;;;8.70;2.92;;;;;;;;;;5112800;28;20024;-75
2022/12/19 05:46:03;;;;;;;7.47;3.00;;;;;;;;;;5095734;28;20023;-76
2022/12/19 05:48:28;;;;;;;5.90;3.00;;;;;;;;;;5112196;28;20024;-76
2022/12/19 05:50:54;;;;;;;3.13;2.45;;;;;;;;;;5095892;28;20039;-75
2022/12/19 05:53:19;;;;;;;5.68;2.78;;;;;;;;;;5112569;28;20080;-74
2022/12/19 05:55:44;;;;;;;12.48;2.60;;;;;;;;;;5113565;28;20034;-74
2022/12/19 05:58:10;;;;;;;11.63;2.95;;;;;;;;;;5113496;28;20111;-76
2022/12/19 06:00:36;;;;;;;15.55;3.92;;;;;;;;;;5095266;28;20028;-76
2022/12/19 06:03:01;;;;;;;14.68;3.85;;;;;;;;;;5112591;28;20466;-75
2022/12/19 06:05:26;;;;;;;9.13;3.60;;;;;;;;;;5095142;28;20019;-74
2022/12/19 06:07:52;;;;;;;11.07;4.05;;;;;;;;;;5112801;28;20557;-74
2022/12/19 06:10:17;;;;;;;10.35;3.60;;;;;;;;;;5095472;28;20392;-77
2022/12/19 06:12:43;;;;;;;10.32;3.85;;;;;;;;;;5112100;28;20031;-76
2022/12/19 06:15:08;;;;;;;11.73;3.53;;;;;;;;;;5115832;28;20474;-77
2022/12/19 06:17:34;;;;;;;7.88;3.45;;;;;;;;;;5117042;27;20028;-77
2022/12/19 06:19:59;;;;;;;13.25;3.13;;;;;;;;;;5117026;28;20024;-76
2022/12/19 06:22:24;;;;;;;7.80;3.33;;;;;;;;;;5117269;28;20028;-76
2022/12/19 06:24:50;;;;;;;8.20;2.90;;;;;;;;;;5116008;28;20027;-76
2022/12/19 06:27:15;;;;;;;8.32;2.83;;;;;;;;;;5116904;28;20036;-75
2022/12/19 06:29:41;;;;;;;6.65;3.05;;;;;;;;;;5116796;28;20028;-76
2022/12/19 06:32:06;;;;;;;6.93;3.17;;;;;;;;;;5116024;28;20118;-76
2022/12/19 06:34:32;;;;;;;7.25;2.72;;;;;;;;;;5117178;28;20035;-76
2022/12/19 06:36:57;;;;;;;5.00;2.80;;;;;;;;;;5115336;28;20052;-76
2022/12/19 06:39:22;;;;;;;4.05;2.70;;;;;;;;;;5115742;28;20080;-76
2022/12/19 06:44:32;;;;;;;7.75;2.65;;;;;;;;;;5116833;28;20123;-76
2022/12/19 06:46:57;;;;;;;5.93;2.40;;;;;;;;;;5098196;28;20474;-75
2022/12/19 06:49:23;;;;;;;3.33;2.30;;;;;;;;;;5098136;28;20035;-76
2022/12/19 06:51:48;;;;;;;4.38;2.80;;;;;;;;;;5116708;28;20039;-76
2022/12/19 06:54:14;;;;;;;3.78;2.47;;;;;;;;;;5116285;28;20035;-76
2022/12/19 06:56:41;;;;;;;4.38;2.38;;;;;;;;;;5116372;27;20032;-76
2022/12/19 06:59:10;;;;;;;4.65;2.42;;;;;;;;;;5115086;28;20591;-76
2022/12/19 07:01:53;;;;;;;3.85;2.38;;;;;;;;;;5116423;28;20035;-75
2022/12/19 07:04:27;;;;;;;3.90;2.42;;;;;;;;;;5114992;28;20019;-76
2022/12/19 07:06:53;;;;;;;3.42;2.30;;;;;;;;;;5114940;28;20034;-76
2022/12/19 07:09:18;;;;;;;6.05;2.40;;;;;;;;;;5116111;28;20039;-77
2022/12/19 07:11:44;;;;;;;2.63;1.90;;;;;;;;;;5116310;27;20031;-76
2022/12/19 07:14:09;;;;;;;4.28;2.40;;;;;;;;;;5116167;27;20031;-76
2022/12/19 07:16:34;;;;;;;9.93;2.70;;;;;;;;;;5114589;28;20115;-76
2022/12/19 07:19:00;;;;;;;2.53;1.80;;;;;;;;;;5115006;28;20542;-75
2022/12/19 07:21:25;;;;;;;4.03;2.10;;;;;;;;;;5116109;27;20107;-76
2022/12/19 07:23:50;;;;;;;3.75;2.33;;;;;;;;;;5097446;28;20024;-75
2022/12/19 07:26:16;;;;;;;3.22;2.40;;;;;;;;;;5114717;28;20039;-75
2022/12/19 07:28:43;;;;;;;3.80;1.90;;;;;;;;;;5115961;28;20549;-76
2022/12/19 07:31:09;;;;;;;3.72;1.95;;;;;;;;;;5115299;28;20047;-75
2022/12/19 07:33:34;;;;;;;3.75;1.85;;;;;;;;;;5114558;28;20066;-75
2022/12/19 07:35:59;;;;;;;4.55;2.20;;;;;;;;;;5114389;28;20075;-76
2022/12/19 07:38:25;;;;;;;2.38;2.17;;;;;;;;;;5115450;28;20034;-76
2022/12/19 07:40:50;;;;;;;4.65;1.92;;;;;;;;;;5115446;28;20031;-76
2022/12/19 07:43:15;;;;;;;5.70;2.08;;;;;;;;;;5115363;28;20367;-76
2022/12/19 07:45:41;;;;;;;2.97;2.08;;;;;;;;;;5115921;28;20032;-75
2022/12/19 07:48:07;;;;;;;2.10;1.85;;;;;;;;;;5114105;28;20034;-74
2022/12/19 07:50:33;;;;;;;2.58;2.10;;;;;;;;;;5113776;28;20032;-74
2022/12/19 07:52:58;;;;;;;2.63;1.80;;;;;;;;;;5115085;28;20117;-77
2022/12/19 07:55:25;;;;;;;2.30;1.90;;;;;;;;;;5096945;28;20474;-74
2022/12/19 07:57:50;;;;;;;2.60;1.95;;;;;;;;;;5096756;28;20023;-74
2022/12/19 08:00:16;;;;;;;3.42;1.95;;;;;;;;;;5113742;28;20038;-76
2022/12/19 08:02:41;;;;;;;3.88;2.00;;;;;;;;;;5096901;28;20430;-76
2022/12/19 08:05:07;;;;;;;3.28;1.98;;;;;;;;;;5113681;28;20028;-76
2022/12/19 08:07:32;;;;;;;2.42;1.85;;;;;;;;;;5115121;28;20041;-76
2022/12/19 08:09:58;;;;;;;2.70;1.90;;;;;;;;;;5113737;28;20382;-75
2022/12/19 08:12:23;;;;;;;2.70;1.90;;;;;;;;;;5113404;28;20035;-76
2022/12/19 08:14:48;;;;;;;2.05;1.77;;;;;;;;;;5114924;28;20031;-76
2022/12/19 08:17:14;;;;;;;2.00;1.67;;;;;;;;;;5113681;28;20493;-76
2022/12/19 08:19:39;;;;;;;1.92;1.70;;;;;;;;;;5096495;28;20084;-76
2022/12/19 08:22:05;;;;;;;2.10;1.80;;;;;;;;;;5113705;28;20038;-76
2022/12/19 08:24:30;;;;;;;3.33;2.00;;;;;;;;;;5113301;28;20389;-76
2022/12/19 08:26:56;;;;;;;3.03;1.90;;;;;;;;;;5114816;28;20129;-75
2022/12/19 08:29:22;;;;;;;2.42;2.00;;;;;;;;;;5096467;28;20032;-76
2022/12/19 08:31:47;;;;;;;2.00;1.80;;;;;;;;;;5096640;28;20091;-75
2022/12/19 08:34:13;;;;;;;2.35;2.05;;;;;;;;;;5113426;28;20039;-75
2022/12/19 08:36:38;;;;;;;2.08;1.77;;;;;;;;;;5114237;28;20078;-75
2022/12/19 08:39:04;;;;;;;2.40;1.88;;;;;;;;;;5114374;28;20024;-76
2022/12/19 08:41:29;;;;;;;2.78;1.92;;;;;;;;;;5114585;28;20123;-76
2022/12/19 08:43:55;;;;;;;1.77;1.60;;;;;;;;;;5112910;28;20051;-76
2022/12/19 08:46:21;;;;;;;1.77;1.67;;;;;;;;;;5113014;28;20051;-76
2022/12/19 08:48:47;;;;;;;2.30;1.60;;;;;;;;;;5113120;28;20053;-75
2022/12/19 08:51:13;;;;;;;1.98;1.75;;;;;;;;;;5095875;28;20055;-75
2022/12/19 08:53:40;;;;;;;2.03;1.67;;;;;;;;;;5095946;28;20028;-75
2022/12/19 08:56:09;;;;;;;2.47;1.70;;;;;;;;;;5113123;28;20015;-75
2022/12/19 08:58:34;;;;;;;2.13;1.75;;;;;;;;;;5095743;28;20028;-75
2022/12/19 09:01:01;;;;;;;2.13;1.73;;;;;;;;;;5095636;28;20393;-75
2022/12/19 09:03:27;;;;;;;2.50;1.58;;;;;;;;;;5095681;28;20119;-75
2022/12/19 09:05:59;;;;;;;2.15;1.80;;;;;;;;;;5114328;28;20107;-75
2022/12/19 09:08:27;;;;;;;2.78;1.77;;;;;;;;;;5095941;28;20023;-76
2022/12/19 09:11:04;;;;;;;1.77;1.63;;;;;;;;;;5112635;28;20032;-76
2022/12/19 09:13:30;;;;;;;2.97;1.85;;;;;;;;;;5112731;28;20028;-76
2022/12/19 09:16:09;;;;;;;2.95;1.95;;;;;;;;;;5114104;28;20439;-76
2022/12/19 09:18:34;;;;;;;2.45;1.63;;;;;;;;;;5112505;28;20504;-76
2022/12/19 09:21:00;;;;;;;2.13;1.80;;;;;;;;;;5078766;28;20063;-76
2022/12/19 09:23:26;;;;;;;2.22;1.90;;;;;;;;;;5095529;28;20508;-76
2022/12/19 09:25:53;;;;;;;2.42;1.80;;;;;;;;;;5095651;28;20026;-76
2022/12/19 09:28:18;;;;;;;2.40;1.77;;;;;;;;;;5114173;28;20385;-75
2022/12/19 09:30:44;;;;;;;1.90;1.75;;;;;;;;;;5096143;28;20032;-75
2022/12/19 09:33:09;;;;;;;2.85;1.90;;;;;;;;;;5112591;28;20028;-75
2022/12/19 09:35:35;;;;;;;2.20;1.75;;;;;;;;;;5112274;28;20060;-75
2022/12/19 09:38:02;;;;;;;2.67;1.80;;;;;;;;;;5095466;28;20028;-76
2022/12/19 09:40:42;;;;;;;2.45;1.70;;;;;;;;;;5112413;28;20024;-75
2022/12/19 09:43:21;;;;;;;1.70;1.60;;;;;;;;;;5112365;28;20016;-76
2022/12/19 09:46:10;;;;;;;2.15;1.80;;;;;;;;;;5095284;28;20024;-76
2022/12/19 09:48:36;;;;;;;2.17;1.83;;;;;;;;;;5112182;28;20016;-76
2022/12/19 09:51:09;;;;;;;2.33;1.80;;;;;;;;;;5098853;28;20028;-76
2022/12/19 09:53:41;;;;;;;6.15;2.08;;;;;;;;;;5116137;28;20432;-76
2022/12/19 09:56:13;;;;;;;2.97;1.77;;;;;;;;;;5116759;28;20034;-75
2022/12/19 09:58:46;;;;;;;3.58;1.85;;;;;;;;;;5116515;28;20458;-75
2022/12/19 10:01:24;;;;;;;3.53;2.03;;;;;;;;;;5116287;28;20031;-75
2022/12/19 10:04:05;;;;;;;6.75;2.20;;;;;;;;;;5116116;28;20020;-76
2022/12/19 10:06:30;;;;;;;3.97;1.80;;;;;;;;;;5116369;28;20047;-76
2022/12/19 10:08:56;;;;;;;3.08;2.00;;;;;;;;;;5098844;28;20074;-76
2022/12/19 10:11:53;;;;;;;2.72;1.88;;;;;;;;;;5098896;28;20201;-76
2022/12/19 10:14:33;;;;;;;3.28;1.73;;;;;;;;;;5094605;28;20032;-76
2022/12/19 10:17:27;;;;;;;2.38;1.70;;;;;;;;;;5098653;28;20023;-76
2022/12/19 10:20:12;;;;;;;3.35;1.80;;;;;;;;;;5115666;28;20027;-75
2022/12/19 10:23:04;;;;;;;1.80;1.70;;;;;;;;;;5115659;28;20478;-76
2022/12/19 10:25:49;;;;;;;2.03;1.60;;;;;;;;;;5115633;28;20036;-76
2022/12/19 10:28:23;;;;;;;2.00;1.65;;;;;;;;;;5098627;28;20367;-75
2022/12/19 10:31:18;;;;;;;1.60;1.45;;;;;;;;;;5115460;28;20107;-75
2022/12/19 10:33:52;;;;;;;3.08;1.60;;;;;;;;;;5092000;28;20039;-75
2022/12/19 10:36:17;;;;;;;;;;;;;;;;;;5115960;28;20077;-75
2022/12/19 10:39:01;;;;;;;1.65;1.45;;;;;;;;;;5116586;28;19911;-75
2022/12/19 10:41:29;;;;;;;1.98;1.73;;;;;;;;;;5098444;28;20023;-75
2022/12/19 10:44:08;;;;;;;1.95;1.60;;;;;;;;;;5115290;28;20026;-75
2022/12/19 10:46:48;;;;;;;2.83;1.80;;;;;;;;;;5115266;28;20505;-75
2022/12/19 10:49:15;;;;;;;2.38;1.48;;;;;;;;;;5098133;28;20034;-75
2022/12/19 10:51:52;;;;;;;2.08;1.58;;;;;;;;;;5115097;28;20090;-75
2022/12/19 10:54:18;;;;;;;1.88;1.60;;;;;;;;;;5115559;28;20039;-76
2022/12/19 10:56:43;;;;;;;2.72;1.90;;;;;;;;;;5115418;28;20370;-76
2022/12/19 10:59:17;;;;;;;1.73;1.48;;;;;;;;;;5116363;28;20500;-75
2022/12/19 11:01:43;;;;;;;2.30;1.60;;;;;;;;;;5115111;28;20042;-76
2022/12/19 11:04:17;;;;;;;1.80;1.40;;;;;;;;;;5097981;28;20027;-76
2022/12/19 11:06:46;;;;;;;2.38;1.75;;;;;;;;;;5116437;28;20027;-76
2022/12/19 11:09:29;;;;;;;2.10;1.70;;;;;;;;;;5114941;28;20019;-77
2022/12/19 11:12:11;;;;;;;5.63;1.80;;;;;;;;;;5116282;28;20034;-78
2022/12/19 11:14:43;;;;;;;12.82;2.75;;;;;;;;;;5115991;27;20024;-76
2022/12/19 11:17:30;;;;;;;11.00;2.80;;;;;;;;;;5115049;28;20034;-75
2022/12/19 11:19:56;;;;;;;7.07;2.47;;;;;;;;;;5114869;28;20031;-76
2022/12/19 11:22:27;;;;;;;6.63;2.38;;;;;;;;;;5097601;28;20383;-76
2022/12/19 11:24:54;;;;;;;7.07;2.88;;;;;;;;;;5114748;28;20026;-76
2022/12/19 11:27:51;;;;;;;6.15;2.35;;;;;;;;;;5114727;28;20024;-77
2022/12/19 11:30:21;;;;;;;6.13;2.67;;;;;;;;;;5081339;28;20043;-76
2022/12/19 11:32:48;;;;;;;5.78;2.40;;;;;;;;;;5097471;28;20038;-76
2022/12/19 11:35:24;;;;;;;6.20;2.90;;;;;;;;;;5114216;28;20061;-75
2022/12/19 11:37:59;;;;;;;6.43;2.78;;;;;;;;;;5114220;28;20066;-76
2022/12/19 11:40:27;;;;;;;7.50;2.67;;;;;;;;;;5115978;28;20374;-75
2022/12/19 11:43:00;;;;;;;9.07;2.60;;;;;;;;;;5115712;28;20023;-75
2022/12/19 11:45:33;;;;;;;3.63;2.20;;;;;;;;;;5114182;28;20488;-75
2022/12/19 11:48:23;;;;;;;4.70;2.23;;;;;;;;;;5114194;28;20317;-76
2022/12/19 11:51:26;;;;;;;4.63;2.40;;;;;;;;;;5097022;28;20753;-75
2022/12/19 11:54:17;;;;;;;7.03;2.30;;;;;;;;;;5092638;28;20071;-75
2022/12/19 11:56:42;;;;;;;4.57;2.17;;;;;;;;;;5113826;28;20023;-76
2022/12/19 11:59:16;;;;;;;7.03;2.30;;;;;;;;;;5114416;28;20023;-76
2022/12/19 12:02:16;;;;;;;5.00;2.28;;;;;;;;;;5096676;28;20382;-75
2022/12/19 12:04:59;;;;;;;4.57;2.20;;;;;;;;;;5114086;28;20088;-75
2022/12/19 12:07:31;;;;;;;4.13;1.92;;;;;;;;;;5113991;28;20046;-75
2022/12/19 12:10:19;;;;;;;3.42;2.03;;;;;;;;;;5113881;28;20027;-75
2022/12/19 12:13:13;;;;;;;4.22;2.10;;;;;;;;;;5112992;28;20028;-75
2022/12/19 12:15:50;;;;;;;6.13;2.28;;;;;;;;;;5115038;28;20027;-76
2022/12/19 12:18:40;;;;;;;4.10;2.08;;;;;;;;;;5096438;28;20027;-77
2022/12/19 12:21:25;;;;;;;3.28;1.80;;;;;;;;;;5115204;28;20023;-77
2022/12/19 12:24:13;;;;;;;4.13;2.13;;;;;;;;;;5113409;28;20481;-77
2022/12/19 12:26:48;;;;;;;2.47;1.77;;;;;;;;;;5113352;28;20020;-77
2022/12/19 12:29:20;;;;;;;2.15;1.60;;;;;;;;;;5096440;28;20031;-77
2022/12/19 12:32:05;;;;;;;4.80;1.90;;;;;;;;;;5112873;28;20537;-77
2022/12/19 12:34:30;;;;;;;4.32;2.10;;;;;;;;;;5113408;28;20032;-77
2022/12/19 12:37:11;;;;;;;2.97;1.77;;;;;;;;;;5112831;28;20054;-76
2022/12/19 12:40:01;;;;;;;3.13;1.45;;;;;;;;;;5113158;28;20027;-77
2022/12/19 12:42:42;;;;;;;2.10;1.65;;;;;;;;;;5112096;28;20023;-76
2022/12/19 12:45:26;;;;;;;4.05;2.00;;;;;;;;;;5097496;28;20485;-76
2022/12/19 12:47:52;;;;;;;;;;;;;;;;;;5112629;28;20106;-74
2022/12/19 12:50:20;;;;;;;3.28;1.90;;;;;;;;;;5112294;28;19958;-76
2022/12/19 12:52:48;;;;;;;2.85;1.80;;;;;;;;;;5111835;28;20027;-76
2022/12/19 12:55:30;;;;;;;2.67;1.70;;;;;;;;;;5112025;28;20469;-76
2022/12/19 12:57:56;;;;;;;1.95;1.50;;;;;;;;;;5094959;28;20028;-76
2022/12/19 13:00:28;;;;;;;2.65;1.90;;;;;;;;;;5112195;28;20035;-76
2022/12/19 13:03:15;;;;;;;2.08;1.70;;;;;;;;;;5078167;28;20019;-76
2022/12/19 13:06:04;;;;;;;1.80;1.50;;;;;;;;;;5094684;28;20023;-77
2022/12/19 13:08:34;;;;;;;2.28;1.83;;;;;;;;;;5112168;28;20466;-77
2022/12/19 13:11:03;;;;;;;3.83;1.90;;;;;;;;;;5095836;28;20034;-76
2022/12/19 13:13:54;;;;;;;4.93;1.90;;;;;;;;;;5095560;28;20020;-77
2022/12/19 13:16:41;;;;;;;2.35;1.60;;;;;;;;;;5112974;28;20032;-77
2022/12/19 13:19:16;;;;;;;3.83;1.75;;;;;;;;;;5114073;28;20023;-77
2022/12/19 13:22:02;;;;;;;1.75;1.45;;;;;;;;;;5112603;28;20023;-76
2022/12/19 13:24:39;;;;;;;2.33;1.52;;;;;;;;;;5102533;28;20457;-75
2022/12/19 13:27:17;;;;;;;2.35;1.70;;;;;;;;;;5117169;28;20462;-76
2022/12/19 13:29:52;;;;;;;2.15;1.65;;;;;;;;;;5116708;28;20378;-76
2022/12/19 13:32:18;;;;;;;1.70;1.50;;;;;;;;;;5118071;28;20043;-74
2022/12/19 13:34:57;;;;;;;3.55;1.77;;;;;;;;;;5099838;28;20498;-76
2022/12/19 13:37:41;;;;;;;3.67;1.83;;;;;;;;;;5099766;28;20404;-74
2022/12/19 13:40:26;;;;;;;2.08;1.45;;;;;;;;;;5116838;28;20072;-75
2022/12/19 13:46:17;;;;;;;4.97;1.83;;;;;;;;;;5118260;28;20104;-75
2022/12/19 13:48:45;;;;;;;6.07;1.70;;;;;;;;;;5115082;28;20051;-74
2022/12/19 13:51:12;;;;;;;3.72;1.52;;;;;;;;;;5116913;28;20390;-77
2022/12/19 13:53:39;;;;;;;2.35;1.67;;;;;;;;;;5116838;28;20096;-75
2022/12/19 13:56:16;;;;;;;4.82;1.85;;;;;;;;;;5117447;28;20478;-75
2022/12/19 13:58:51;;;;;;;2.78;1.77;;;;;;;;;;5116153;28;20123;-75
2022/12/19 14:01:26;;;;;;;1.50;1.40;;;;;;;;;;5099136;28;20027;-75
2022/12/19 14:03:58;;;;;;;1.40;1.30;;;;;;;;;;5117732;28;20027;-75
2022/12/19 14:06:29;;;;;;;5.75;1.77;;;;;;;;;;5116249;28;20023;-75
2022/12/19 14:09:01;;;;;;;2.75;1.70;;;;;;;;;;5116395;28;20019;-75
2022/12/19 14:11:27;;;;;;;4.75;1.73;;;;;;;;;;5116134;28;20019;-76
2022/12/19 14:16:39;;;;;;;2.33;1.70;;;;;;;;;;5116118;28;20105;-75
2022/12/19 14:19:17;;;;;;;4.13;1.95;;;;;;;;;;5116342;28;20150;-75
2022/12/19 14:21:43;;;;;;;3.30;1.52;;;;;;;;;;5097903;28;20092;-75
2022/12/19 14:24:14;;;;;;;2.25;1.90;;;;;;;;;;5094746;28;20024;-75
2022/12/19 14:26:42;;;;;;;2.67;1.70;;;;;;;;;;5107164;28;20020;-76
2022/12/19 14:29:40;;;;;;;2.10;1.45;;;;;;;;;;5115043;28;20072;-76
2022/12/19 14:32:06;;;;;;;4.82;1.80;;;;;;;;;;5101240;28;20023;-77
2022/12/19 14:34:32;;;;;;;6.65;2.55;;;;;;;;;;5115841;27;20027;-77
2022/12/19 14:36:58;;;;;;;1.70;1.48;;;;;;;;;;5096799;28;20104;-76
2022/12/19 14:39:29;;;;;;;2.35;1.50;;;;;;;;;;5114555;28;20040;-77
2022/12/19 14:45:40;;;;;;;1.90;1.38;;;;;;;;;;5115792;28;20088;-76
2022/12/19 14:48:24;;;;;;;2.45;1.77;;;;;;;;;;5110143;28;20434;-77
2022/12/19 14:50:49;;;;;;;2.30;1.80;;;;;;;;;;5115686;28;20047;-77
2022/12/19 14:53:16;;;;;;;2.45;1.80;;;;;;;;;;5114726;28;20081;-75
2022/12/19 14:55:45;;;;;;;1.67;1.58;;;;;;;;;;5114495;28;20023;-76
2022/12/19 14:58:22;;;;;;;2.65;1.60;;;;;;;;;;5080740;28;20478;-76
2022/12/19 15:00:50;;;;;;;1.75;1.50;;;;;;;;;;5114216;28;20020;-76
2022/12/19 15:03:28;;;;;;;2.10;1.70;;;;;;;;;;5114059;28;20103;-76
2022/12/19 15:06:13;;;;;;;2.38;1.60;;;;;;;;;;5114967;28;20084;-76
2022/12/19 15:08:38;;;;;;;2.53;1.70;;;;;;;;;;5114889;28;20466;-76
2022/12/19 15:13:53;;;;;;;2.15;1.45;;;;;;;;;;5115175;28;20031;-77
2022/12/19 15:16:30;;;;;;;3.65;1.38;;;;;;;;;;5116686;28;20347;-76
2022/12/19 15:18:58;;;;;;;3.28;1.85;;;;;;;;;;5097235;28;20019;-77
2022/12/19 15:21:24;;;;;;;1.90;1.70;;;;;;;;;;5114628;28;20024;-77
2022/12/19 15:23:49;;;;;;;3.10;1.80;;;;;;;;;;5116029;28;20526;-76